createdAt,value
2023-02-23T00:00:29.349Z,17.83
2023-02-23T00:02:59.060Z,15.47
2023-02-23T00:05:27.954Z,14.67
2023-02-23T00:07:55.750Z,15.80
2023-02-23T00:10:30.494Z,15.57
2023-02-23T00:13:00.000Z,15.00
2023-02-23T00:15:29.734Z,15.67
2023-02-23T00:17:58.854Z,16.50
2023-02-23T00:20:28.240Z,15.50
2023-02-23T00:22:58.138Z,15.80
2023-02-23T00:25:28.934Z,16.90
2023-02-23T00:27:56.897Z,15.77
2023-02-23T00:30:26.431Z,14.50
2023-02-23T00:32:54.068Z,15.93
2023-02-23T00:35:32.380Z,15.93
2023-02-23T00:38:02.039Z,16.50
2023-02-23T00:40:30.862Z,17.30
2023-02-23T00:43:00.284Z,14.90
2023-02-23T00:45:30.456Z,15.53
2023-02-23T00:48:05.636Z,15.57
2023-02-23T00:50:34.780Z,15.17
2023-02-23T00:53:02.625Z,15.57
2023-02-23T00:55:32.246Z,16.30
2023-02-23T00:57:59.783Z,15.67
2023-02-23T01:00:34.047Z,15.93
2023-02-23T01:03:01.910Z,15.57
2023-02-23T01:05:29.777Z,14.93
2023-02-23T01:07:57.480Z,15.87
2023-02-23T01:10:25.093Z,18.10
2023-02-23T01:12:53.776Z,15.17
2023-02-23T01:15:22.087Z,16.73
2023-02-23T01:17:51.326Z,16.50
2023-02-23T01:20:20.110Z,16.80
2023-02-23T01:22:50.050Z,15.97
2023-02-23T01:25:18.684Z,16.20
2023-02-23T01:27:47.204Z,15.57
2023-02-23T01:30:19.216Z,16.40
2023-02-23T01:32:46.884Z,17.07
2023-02-23T01:35:16.160Z,15.07
2023-02-23T01:37:45.461Z,16.27
2023-02-23T01:40:18.313Z,17.20
2023-02-23T01:42:47.923Z,17.03
2023-02-23T01:45:31.360Z,15.50
2023-02-23T01:48:03.016Z,17.30
2023-02-23T01:50:38.703Z,15.53
2023-02-23T01:53:06.865Z,15.47
2023-02-23T01:55:35.177Z,17.70
2023-02-23T01:58:15.228Z,17.33
2023-02-23T02:00:47.559Z,16.80
2023-02-23T02:03:29.840Z,16.87
2023-02-23T02:06:01.744Z,16.90
2023-02-23T02:08:32.543Z,16.87
2023-02-23T02:11:01.004Z,17.87
2023-02-23T02:13:32.252Z,18.03
2023-02-23T02:16:28.911Z,18.13
2023-02-23T02:19:20.993Z,18.37
2023-02-23T02:22:29.210Z,18.67
2023-02-23T02:25:43.516Z,18.70
2023-02-23T02:28:47.306Z,18.37
2023-02-23T02:31:46.758Z,18.77
2023-02-23T02:34:46.977Z,17.93
2023-02-23T02:37:36.322Z,18.50
2023-02-23T02:40:16.586Z,17.63
2023-02-23T02:43:00.137Z,19.17
2023-02-23T02:45:35.688Z,18.50
2023-02-23T02:48:11.991Z,19.90
2023-02-23T02:50:48.179Z,20.37
2023-02-23T02:53:24.690Z,20.20
2023-02-23T02:55:58.211Z,19.77
2023-02-23T02:58:27.460Z,19.57
2023-02-23T03:01:12.737Z,17.83
2023-02-23T03:04:02.082Z,20.07
2023-02-23T03:06:51.208Z,18.67
2023-02-23T03:09:49.909Z,18.97
2023-02-23T03:12:45.486Z,18.87
2023-02-23T03:15:44.438Z,18.20
2023-02-23T03:18:43.793Z,19.77
2023-02-23T03:21:37.587Z,19.73
2023-02-23T03:24:30.278Z,19.10
2023-02-23T03:27:23.530Z,20.47
2023-02-23T03:30:16.217Z,20.20
2023-02-23T03:33:06.930Z,19.23
2023-02-23T03:35:58.896Z,19.40
2023-02-23T03:38:52.040Z,18.83
2023-02-23T03:41:40.662Z,19.37
2023-02-23T03:44:33.953Z,18.73
2023-02-23T03:47:21.751Z,19.53
2023-02-23T03:50:08.770Z,19.93
2023-02-23T03:53:00.204Z,20.53
2023-02-23T03:55:52.063Z,20.20
2023-02-23T03:58:43.684Z,19.77
2023-02-23T04:01:35.685Z,19.83
2023-02-23T04:04:25.661Z,20.50
2023-02-23T04:07:13.632Z,20.40
2023-02-23T04:09:59.019Z,18.97
2023-02-23T04:12:54.950Z,22.07
2023-02-23T04:15:27.568Z,20.23
2023-02-23T04:17:57.872Z,21.57
2023-02-23T04:23:09.651Z,20.43
2023-02-23T04:25:37.320Z,21.40
2023-02-23T04:28:07.243Z,22.10
2023-02-23T04:30:55.756Z,20.53
2023-02-23T04:33:30.900Z,20.83
2023-02-23T04:36:00.626Z,22.20
2023-02-23T04:38:30.309Z,21.90
2023-02-23T04:40:58.924Z,20.33
2023-02-23T04:43:31.508Z,22.50
2023-02-23T04:45:59.146Z,21.13
2023-02-23T04:48:28.281Z,22.07
2023-02-23T04:50:58.624Z,21.30
2023-02-23T04:53:27.954Z,20.50
2023-02-23T04:55:57.935Z,21.80
2023-02-23T04:58:30.698Z,22.67
2023-02-23T05:01:05.634Z,22.27
2023-02-23T05:03:42.541Z,22.10
2023-02-23T05:06:12.697Z,21.97
2023-02-23T05:08:43.211Z,21.87
2023-02-23T05:11:12.815Z,22.47
2023-02-23T05:13:40.700Z,22.17
2023-02-23T05:16:19.018Z,22.27
2023-02-23T05:19:01.230Z,21.70
2023-02-23T05:21:29.135Z,22.40
2023-02-23T05:24:03.104Z,25.73
2023-02-23T05:26:30.712Z,24.63
2023-02-23T05:29:06.054Z,23.80
2023-02-23T05:31:35.662Z,24.30
2023-02-23T05:34:05.397Z,24.80
2023-02-23T05:36:46.882Z,24.60
2023-02-23T05:39:14.512Z,23.07
2023-02-23T05:41:42.050Z,24.57
2023-02-23T05:47:01.208Z,22.10
2023-02-23T05:49:47.080Z,23.70
2023-02-23T05:52:15.138Z,25.67
2023-02-23T05:54:58.785Z,21.70
2023-02-23T05:57:27.455Z,22.17
2023-02-23T05:59:55.630Z,23.00
2023-02-23T06:02:29.580Z,22.17
2023-02-23T06:05:03.806Z,21.90
2023-02-23T06:07:32.027Z,21.10
2023-02-23T06:12:47.294Z,22.97
2023-02-23T06:15:14.907Z,23.50
2023-02-23T06:17:43.280Z,21.33
2023-02-23T06:20:22.970Z,22.03
2023-02-23T06:22:50.992Z,23.50
2023-02-23T06:25:18.993Z,23.30
2023-02-23T06:27:46.538Z,22.40
2023-02-23T06:30:18.713Z,23.10
2023-02-23T06:32:47.570Z,23.60
2023-02-23T06:35:17.461Z,23.87
2023-02-23T06:37:46.362Z,24.80
2023-02-23T06:40:14.169Z,22.40
2023-02-23T06:42:41.936Z,25.40
2023-02-23T06:45:11.023Z,24.23
2023-02-23T06:47:42.141Z,24.90
2023-02-23T06:50:11.452Z,22.90
2023-02-23T06:52:39.388Z,24.10
2023-02-23T06:55:10.179Z,23.90
2023-02-23T06:57:38.297Z,24.00
2023-02-23T07:00:06.916Z,23.57
2023-02-23T07:02:37.443Z,26.30
2023-02-23T07:05:06.086Z,24.30
2023-02-23T07:07:33.873Z,25.73
2023-02-23T07:10:01.624Z,26.10
2023-02-23T07:12:31.463Z,23.73
2023-02-23T07:14:59.072Z,23.73
2023-02-23T07:17:26.856Z,24.47
2023-02-23T07:19:54.616Z,23.37
2023-02-23T07:22:27.138Z,24.30
2023-02-23T07:24:54.755Z,22.77
2023-02-23T07:27:23.443Z,22.83
2023-02-23T07:29:52.495Z,23.33
2023-02-23T07:32:20.227Z,23.50
2023-02-23T07:34:48.183Z,23.53
2023-02-23T07:37:19.455Z,22.90
2023-02-23T07:39:47.834Z,23.17
2023-02-23T07:42:15.512Z,22.90
2023-02-23T07:44:43.641Z,23.93
2023-02-23T07:47:13.305Z,23.80
2023-02-23T07:49:41.462Z,23.93
2023-02-23T07:52:21.682Z,21.43
2023-02-23T07:54:49.318Z,23.10
2023-02-23T07:57:16.887Z,20.50
2023-02-23T07:59:44.556Z,21.47
2023-02-23T08:02:18.864Z,22.23
2023-02-23T08:04:48.965Z,22.70
2023-02-23T08:07:16.496Z,21.30
2023-02-23T08:09:45.218Z,21.27
2023-02-23T08:12:25.434Z,21.57
2023-02-23T08:14:53.847Z,21.20
2023-02-23T08:17:23.934Z,22.93
2023-02-23T08:19:51.532Z,21.47
2023-02-23T08:22:19.324Z,20.10
2023-02-23T08:24:47.001Z,20.73
2023-02-23T08:27:14.992Z,21.00
2023-02-23T08:29:42.616Z,20.67
2023-02-23T08:32:10.765Z,22.60
2023-02-23T08:34:41.562Z,20.53
2023-02-23T08:37:09.221Z,20.70
2023-02-23T08:39:37.371Z,20.40
2023-02-23T08:42:05.597Z,21.07
2023-02-23T08:44:33.437Z,21.50
2023-02-23T08:47:01.153Z,20.37
2023-02-23T08:49:28.935Z,21.50
2023-02-23T08:51:57.953Z,21.50
2023-02-23T08:54:25.506Z,20.30
2023-02-23T08:56:59.366Z,19.97
2023-02-23T08:59:28.060Z,19.90
2023-02-23T09:01:55.667Z,21.50
2023-02-23T09:04:23.884Z,20.80
2023-02-23T09:06:51.655Z,21.03
2023-02-23T09:09:20.613Z,21.40
2023-02-23T09:11:52.617Z,21.07
2023-02-23T09:14:21.092Z,22.00
2023-02-23T09:16:52.240Z,19.43
2023-02-23T09:19:20.086Z,21.27
2023-02-23T09:21:47.639Z,20.87
2023-02-23T09:24:17.186Z,18.83
2023-02-23T09:26:46.092Z,19.83
2023-02-23T09:29:13.682Z,18.70
2023-02-23T09:31:46.424Z,20.47
2023-02-23T09:34:21.677Z,19.60
2023-02-23T09:36:49.253Z,17.20
2023-02-23T09:39:19.024Z,20.97
2023-02-23T09:42:21.013Z,19.83
2023-02-23T09:45:01.810Z,19.43
2023-02-23T09:47:38.160Z,20.20
2023-02-23T09:50:16.385Z,19.50
2023-02-23T09:52:48.445Z,18.83
2023-02-23T09:55:17.133Z,20.90
2023-02-23T09:57:49.437Z,20.37
2023-02-23T10:00:24.072Z,18.10
2023-02-23T10:03:07.378Z,22.87
2023-02-23T10:05:43.843Z,17.67
2023-02-23T10:08:43.461Z,19.13
2023-02-23T10:11:24.594Z,20.70
2023-02-23T10:14:02.901Z,18.17
2023-02-23T10:16:42.673Z,18.90
2023-02-23T10:19:20.363Z,17.87
2023-02-23T10:21:55.371Z,16.90
2023-02-23T10:24:28.616Z,16.50
2023-02-23T10:27:01.433Z,16.53
2023-02-23T10:29:36.185Z,16.43
2023-02-23T10:32:13.604Z,16.67
2023-02-23T10:34:42.286Z,18.50
2023-02-23T10:37:13.424Z,18.50
2023-02-23T10:39:42.125Z,19.43
2023-02-23T10:42:15.522Z,18.60
2023-02-23T10:44:46.486Z,17.27
2023-02-23T10:47:17.179Z,17.27
2023-02-23T10:49:48.885Z,16.77
2023-02-23T10:52:26.384Z,16.97
2023-02-23T10:54:54.312Z,17.23
2023-02-23T10:57:26.615Z,16.23
2023-02-23T11:00:17.021Z,16.97
2023-02-23T11:02:47.776Z,15.67
2023-02-23T11:05:33.913Z,18.60
2023-02-23T11:08:27.276Z,16.20
2023-02-23T11:11:08.513Z,15.67
2023-02-23T11:13:41.718Z,18.00
2023-02-23T11:16:14.112Z,16.20
2023-02-23T11:18:45.998Z,14.40
2023-02-23T11:21:19.871Z,14.47
2023-02-23T11:23:51.681Z,14.30
2023-02-23T11:26:29.694Z,14.37
2023-02-23T11:29:03.971Z,17.20
2023-02-23T11:31:35.862Z,17.57
2023-02-23T11:34:05.579Z,12.70
2023-02-23T11:36:36.000Z,15.10
2023-02-23T11:39:15.670Z,12.50
2023-02-23T11:41:43.705Z,12.90
2023-02-23T11:44:21.113Z,12.60
2023-02-23T11:46:52.544Z,13.00
2023-02-23T11:49:27.710Z,11.73
2023-02-23T11:51:56.298Z,10.50
2023-02-23T11:54:29.701Z,10.10
2023-02-23T11:56:58.815Z,11.00
2023-02-23T11:59:30.934Z,11.17
2023-02-23T12:02:07.463Z,12.90
2023-02-23T12:04:42.865Z,11.00
2023-02-23T12:07:42.462Z,10.90
2023-02-23T12:10:17.644Z,10.40
2023-02-23T12:12:52.691Z,9.20
2023-02-23T12:15:30.275Z,10.07
2023-02-23T12:18:06.936Z,8.90
2023-02-23T12:20:40.906Z,8.23
2023-02-23T12:23:16.730Z,9.80
2023-02-23T12:25:48.742Z,8.97
2023-02-23T12:28:26.035Z,7.73
2023-02-23T12:30:58.588Z,8.70
2023-02-23T12:33:35.838Z,9.30
2023-02-23T12:36:18.550Z,9.57
2023-02-23T12:38:53.924Z,8.20
2023-02-23T12:41:33.371Z,9.13
2023-02-23T12:44:07.530Z,8.63
2023-02-23T12:46:40.493Z,7.90
2023-02-23T12:49:18.698Z,7.50
2023-02-23T12:51:57.471Z,8.53
2023-02-23T12:54:25.547Z,7.67
2023-02-23T12:57:08.153Z,8.43
2023-02-23T13:00:09.942Z,7.83
2023-02-23T13:02:47.606Z,7.80
2023-02-23T13:05:24.411Z,7.17
2023-02-23T13:08:12.929Z,6.57
2023-02-23T13:10:51.503Z,7.23
2023-02-23T13:13:30.432Z,9.60
2023-02-23T13:16:03.677Z,7.57
2023-02-23T13:18:46.161Z,6.97
2023-02-23T13:21:22.483Z,6.90
2023-02-23T13:23:59.836Z,6.23
2023-02-23T13:26:34.931Z,5.67
2023-02-23T13:29:08.402Z,5.60
2023-02-23T13:31:37.918Z,5.97
2023-02-23T13:34:08.445Z,5.30
2023-02-23T13:36:40.621Z,5.03
2023-02-23T13:39:37.340Z,4.03
2023-02-23T13:42:16.434Z,4.00
2023-02-23T13:44:52.640Z,3.93
2023-02-23T13:47:38.350Z,4.43
2023-02-23T13:50:16.282Z,4.00
2023-02-23T13:52:49.558Z,5.10
2023-02-23T13:55:48.611Z,4.07
2023-02-23T13:58:20.945Z,3.47
2023-02-23T14:00:55.838Z,3.83
2023-02-23T14:03:28.180Z,3.63
2023-02-23T14:06:00.507Z,3.57
2023-02-23T14:08:35.130Z,4.37
2023-02-23T14:11:08.456Z,3.87
2023-02-23T14:13:41.916Z,3.67
2023-02-23T14:16:14.917Z,3.17
2023-02-23T14:19:36.169Z,4.67
2023-02-23T14:22:10.733Z,4.47
2023-02-23T14:24:40.266Z,4.30
2023-02-23T14:27:41.753Z,4.20
2023-02-23T14:30:22.753Z,4.40
2023-02-23T14:32:53.551Z,4.90
2023-02-23T14:35:46.835Z,3.90
2023-02-23T14:38:45.681Z,4.50
2023-02-23T14:41:22.392Z,5.50
2023-02-23T14:43:55.330Z,4.57
2023-02-23T14:46:26.156Z,4.50
2023-02-23T14:49:00.251Z,4.37
2023-02-23T14:51:46.963Z,5.57
2023-02-23T14:54:24.411Z,5.00
2023-02-23T14:56:56.999Z,5.37
2023-02-23T14:59:28.033Z,4.43
2023-02-23T15:01:56.971Z,4.70
2023-02-23T15:04:27.355Z,5.13
2023-02-23T15:07:01.447Z,4.83
2023-02-23T15:09:35.224Z,4.33
2023-02-23T15:12:23.269Z,5.87
2023-02-23T15:14:51.616Z,5.97
2023-02-23T15:17:24.504Z,5.60
2023-02-23T15:20:14.299Z,5.00
2023-02-23T15:22:44.526Z,5.17
2023-02-23T15:25:17.104Z,5.10
2023-02-23T15:27:47.695Z,5.80
2023-02-23T15:30:30.944Z,6.10
2023-02-23T15:33:06.648Z,6.17
2023-02-23T15:35:45.215Z,6.00
2023-02-23T15:38:42.392Z,6.50
2023-02-23T15:41:22.309Z,6.00
2023-02-23T15:43:51.744Z,6.87
2023-02-23T15:46:26.915Z,8.97
2023-02-23T15:49:09.725Z,6.10
2023-02-23T15:51:46.759Z,7.10
2023-02-23T15:54:23.704Z,6.70
2023-02-23T15:56:57.429Z,5.90
2023-02-23T15:59:32.142Z,5.97
2023-02-23T16:02:03.809Z,6.83
2023-02-23T16:04:33.493Z,6.83
2023-02-23T16:07:16.726Z,6.87
2023-02-23T16:09:50.677Z,7.30
2023-02-23T16:12:21.977Z,6.27
2023-02-23T16:14:57.553Z,6.77
2023-02-23T16:17:48.110Z,6.27
2023-02-23T16:20:20.547Z,6.00
2023-02-23T16:22:57.254Z,5.43
2023-02-23T16:25:39.248Z,5.83
2023-02-23T16:28:13.512Z,6.17
2023-02-23T16:31:00.842Z,6.27
2023-02-23T16:37:01.284Z,5.97
2023-02-23T16:39:51.074Z,6.30
2023-02-23T16:46:12.015Z,6.30
2023-02-23T16:52:49.870Z,6.63
2023-02-23T16:58:21.716Z,7.37
2023-02-23T17:00:58.187Z,6.10
2023-02-23T17:03:36.011Z,6.50
2023-02-23T17:06:13.562Z,6.47
2023-02-23T17:11:43.899Z,6.60
2023-02-23T17:14:31.599Z,7.57
2023-02-23T17:17:03.667Z,6.00
2023-02-23T17:19:40.850Z,7.87
2023-02-23T17:22:09.617Z,6.97
2023-02-23T17:24:45.279Z,7.80
2023-02-23T17:27:12.991Z,7.23
2023-02-23T17:29:48.582Z,7.40
2023-02-23T17:32:20.541Z,7.50
2023-02-23T17:34:54.365Z,7.53
2023-02-23T17:40:13.392Z,7.53
2023-02-23T17:42:47.809Z,8.30
2023-02-23T17:45:21.249Z,8.63
2023-02-23T17:48:01.699Z,8.73
2023-02-23T17:50:33.468Z,8.97
2023-02-23T17:53:01.273Z,8.43
2023-02-23T17:55:58.366Z,8.60
2023-02-23T17:58:29.619Z,9.50
2023-02-23T18:01:00.632Z,8.10
2023-02-23T18:03:34.027Z,10.60
2023-02-23T18:06:14.040Z,11.00
2023-02-23T18:08:52.447Z,10.27
2023-02-23T18:11:37.492Z,10.10
2023-02-23T18:16:53.756Z,11.10
2023-02-23T18:19:24.458Z,10.73
2023-02-23T18:22:06.172Z,12.50
2023-02-23T18:24:42.470Z,10.80
2023-02-23T18:27:14.070Z,10.57
2023-02-23T18:29:44.065Z,11.50
2023-02-23T18:32:23.303Z,10.80
2023-02-23T18:34:59.488Z,12.10
2023-02-23T18:37:28.730Z,9.90
2023-02-23T18:40:02.529Z,11.63
2023-02-23T18:42:31.677Z,12.07
2023-02-23T18:44:59.824Z,11.40
2023-02-23T18:47:35.692Z,12.10
2023-02-23T18:50:06.065Z,10.77
2023-02-23T18:52:41.145Z,11.13
2023-02-23T18:55:11.698Z,10.67
2023-02-23T18:57:40.344Z,10.77
2023-02-23T19:00:13.554Z,11.93
2023-02-23T19:02:42.177Z,10.93
2023-02-23T19:05:15.889Z,11.30
2023-02-23T19:07:50.754Z,10.07
2023-02-23T19:10:23.492Z,11.13
2023-02-23T19:12:53.692Z,10.33
2023-02-23T19:15:21.632Z,10.20
2023-02-23T19:17:49.294Z,9.47
2023-02-23T19:20:26.169Z,9.53
2023-02-23T19:22:55.932Z,10.63
2023-02-23T19:25:26.129Z,10.90
2023-02-23T19:27:54.504Z,11.00
2023-02-23T19:30:22.352Z,11.17
2023-02-23T19:32:55.772Z,10.77
2023-02-23T19:35:24.425Z,10.30
2023-02-23T19:38:07.065Z,9.67
2023-02-23T19:40:36.948Z,10.43
2023-02-23T19:43:13.840Z,9.60
2023-02-23T19:45:48.558Z,9.87
2023-02-23T19:48:16.743Z,10.27
2023-02-23T19:50:49.394Z,10.63
2023-02-23T19:53:17.813Z,9.33
2023-02-23T19:55:49.704Z,8.70
2023-02-23T19:58:27.183Z,11.70
2023-02-23T20:03:46.552Z,10.53
2023-02-23T20:06:18.513Z,10.20
2023-02-23T20:08:57.097Z,9.77
2023-02-23T20:11:46.298Z,10.80
2023-02-23T20:14:14.769Z,10.53
2023-02-23T20:22:37.437Z,10.10
2023-02-23T20:25:09.606Z,9.67
2023-02-23T20:30:35.406Z,11.10
2023-02-23T20:33:31.050Z,10.60
2023-02-23T20:36:21.541Z,10.10
2023-02-23T20:38:53.532Z,10.30
2023-02-23T20:41:24.030Z,9.27
2023-02-23T20:44:31.362Z,9.57
2023-02-23T20:47:19.251Z,10.40
2023-02-23T20:49:47.981Z,9.70
2023-02-23T20:52:18.904Z,10.17
2023-02-23T20:54:47.687Z,10.33
2023-02-23T20:57:15.579Z,9.47
2023-02-23T20:59:44.813Z,9.70
2023-02-23T21:02:16.713Z,9.20
2023-02-23T21:04:45.103Z,10.80
2023-02-23T21:07:13.425Z,9.47
2023-02-23T21:09:46.429Z,8.90
2023-02-23T21:12:15.590Z,9.27
2023-02-23T21:14:58.942Z,9.07
2023-02-23T21:17:26.592Z,10.40
2023-02-23T21:19:54.218Z,9.07
2023-02-23T21:22:22.176Z,9.10
2023-02-23T21:24:49.790Z,9.80
2023-02-23T21:27:23.720Z,9.37
2023-02-23T21:29:55.129Z,9.60
2023-02-23T21:32:29.012Z,10.37
2023-02-23T21:35:04.871Z,8.90
2023-02-23T21:37:33.129Z,10.30
2023-02-23T21:40:00.954Z,10.67
2023-02-23T21:42:30.131Z,11.30
2023-02-23T21:44:57.923Z,10.97
2023-02-23T21:47:28.663Z,10.20
2023-02-23T21:49:56.281Z,11.50
2023-02-23T21:52:25.044Z,12.70
2023-02-23T21:54:52.764Z,11.90
2023-02-23T21:57:22.568Z,12.40
2023-02-23T21:59:52.613Z,11.40
2023-02-23T22:02:21.208Z,12.33
2023-02-23T22:04:51.680Z,11.23
2023-02-23T22:07:24.051Z,11.30
2023-02-23T22:09:53.016Z,12.70
2023-02-23T22:12:21.077Z,11.63
2023-02-23T22:14:48.729Z,10.10
2023-02-23T22:17:18.850Z,12.07
2023-02-23T22:19:46.964Z,13.10
2023-02-23T22:22:16.574Z,13.37
2023-02-23T22:24:44.238Z,12.27
2023-02-23T22:27:15.821Z,12.40
2023-02-23T22:29:43.850Z,11.00
2023-02-23T22:32:12.061Z,12.07
2023-02-23T22:34:42.804Z,11.00
2023-02-23T22:37:11.063Z,12.00
2023-02-23T22:39:44.971Z,10.40
2023-02-23T22:42:20.677Z,11.63
2023-02-23T22:44:56.478Z,11.57
2023-02-23T22:47:33.410Z,11.70
2023-02-23T22:50:01.246Z,11.57
2023-02-23T22:52:30.026Z,10.53
2023-02-23T22:55:00.169Z,11.63
2023-02-23T22:57:28.864Z,11.77
2023-02-23T23:00:00.886Z,11.93
2023-02-23T23:02:33.325Z,11.10
2023-02-23T23:05:01.789Z,12.50
2023-02-23T23:07:31.465Z,11.47
2023-02-23T23:10:06.134Z,11.83
2023-02-23T23:12:37.576Z,12.53
2023-02-23T23:15:14.663Z,11.97
2023-02-23T23:17:48.124Z,11.03
2023-02-23T23:20:19.215Z,12.77
2023-02-23T23:22:46.851Z,12.97
2023-02-23T23:25:15.922Z,12.83
2023-02-23T23:27:45.649Z,10.83
2023-02-23T23:30:14.527Z,12.70
2023-02-23T23:32:42.255Z,11.47
2023-02-23T23:35:13.334Z,11.57
2023-02-23T23:37:41.289Z,12.70
2023-02-23T23:40:14.488Z,12.43
2023-02-23T23:42:46.048Z,11.77
2023-02-23T23:45:16.180Z,10.60
2023-02-23T23:47:47.256Z,11.07
2023-02-23T23:50:16.517Z,11.90
2023-02-23T23:52:46.928Z,11.33
2023-02-23T23:55:16.177Z,11.87
2023-02-23T23:57:45.130Z,11.50
